createdAt,value
2023-03-05T00:02:02.318Z,101038.88
2023-03-05T00:04:29.170Z,101020.56
2023-03-05T00:06:55.957Z,101026.25
2023-03-05T00:09:22.788Z,101023.22
2023-03-05T00:11:49.744Z,101014.91
2023-03-05T00:14:16.574Z,101017.72
2023-03-05T00:16:43.488Z,101004.47
2023-03-05T00:19:11.165Z,101001.09
2023-03-05T00:21:40.059Z,101002.94
2023-03-05T00:24:11.243Z,101004.13
2023-03-05T00:26:39.158Z,100996.81
2023-03-05T00:29:07.954Z,100997.84
2023-03-05T00:31:36.518Z,100995.38
2023-03-05T00:34:09.469Z,100996.00
2023-03-05T00:36:40.288Z,100994.66
2023-03-05T00:39:07.282Z,100979.56
2023-03-05T00:41:34.290Z,100977.25
2023-03-05T00:44:01.295Z,100975.72
2023-03-05T00:46:28.587Z,100979.38
2023-03-05T00:48:56.604Z,100973.59
2023-03-05T00:51:24.709Z,100973.78
2023-03-05T00:53:51.652Z,100974.25
2023-03-05T00:56:18.455Z,100961.78
2023-03-05T00:58:45.293Z,100959.13
2023-03-05T01:01:12.137Z,100960.78
2023-03-05T01:03:39.049Z,100950.16
2023-03-05T01:06:08.802Z,100954.78
2023-03-05T01:08:36.253Z,100941.16
2023-03-05T01:11:04.171Z,100941.66
2023-03-05T01:13:31.153Z,100937.34
2023-03-05T01:15:57.985Z,100940.66
2023-03-05T01:18:24.856Z,100936.69
2023-03-05T01:20:51.776Z,100929.88
2023-03-05T01:23:18.720Z,100929.84
2023-03-05T01:25:45.607Z,100928.84
2023-03-05T01:28:12.545Z,100921.75
2023-03-05T01:30:39.400Z,100922.22
2023-03-05T01:33:06.172Z,100925.03
2023-03-05T01:35:33.089Z,100926.34
2023-03-05T01:37:59.941Z,100913.25
2023-03-05T01:40:29.148Z,100903.81
2023-03-05T01:43:01.503Z,100900.97
2023-03-05T01:45:32.566Z,100896.13
2023-03-05T01:48:00.148Z,100890.81
2023-03-05T01:50:28.703Z,100885.31
2023-03-05T01:53:03.599Z,100883.28
2023-03-05T01:55:32.939Z,100885.44
2023-03-05T01:58:07.045Z,100878.81
2023-03-05T02:00:43.481Z,100869.94
2023-03-05T02:03:12.466Z,100869.94
2023-03-05T02:05:41.332Z,100865.41
2023-03-05T02:08:10.369Z,100860.66
2023-03-05T02:10:43.013Z,100859.47
2023-03-05T02:13:16.074Z,100846.81
2023-03-05T02:15:43.046Z,100838.84
2023-03-05T02:18:10.396Z,100823.94
2023-03-05T02:20:56.858Z,100826.59
2023-03-05T02:23:29.076Z,100822.75
2023-03-05T02:25:56.477Z,100810.63
2023-03-05T02:28:31.170Z,100811.13
2023-03-05T02:30:58.051Z,100811.13
2023-03-05T02:33:25.871Z,100809.66
2023-03-05T02:35:52.880Z,100808.34
2023-03-05T02:38:21.216Z,100789.56
2023-03-05T02:40:48.253Z,100794.03
2023-03-05T02:43:16.641Z,100784.16
2023-03-05T02:45:43.651Z,100780.16
2023-03-05T02:48:10.570Z,100766.19
2023-03-05T02:50:39.884Z,100766.78
2023-03-05T02:53:06.972Z,100759.94
2023-03-05T02:55:33.890Z,100759.47
2023-03-05T02:58:00.704Z,100752.22
2023-03-05T03:00:28.201Z,100741.91
2023-03-05T03:02:55.429Z,100741.75
2023-03-05T03:05:22.939Z,100737.94
2023-03-05T03:07:50.186Z,100737.63
2023-03-05T03:10:17.500Z,100732.16
2023-03-05T03:12:45.089Z,100737.28
2023-03-05T03:15:14.095Z,100716.06
2023-03-05T03:17:40.879Z,100715.06
2023-03-05T03:20:10.233Z,100714.88
2023-03-05T03:22:37.262Z,100710.91
2023-03-05T03:25:05.165Z,100697.47
2023-03-05T03:27:32.010Z,100695.00
2023-03-05T03:30:04.983Z,100692.50
2023-03-05T03:32:32.938Z,100681.53
2023-03-05T03:35:00.135Z,100681.84
2023-03-05T03:37:27.022Z,100673.06
2023-03-05T03:39:53.817Z,100666.25
2023-03-05T03:42:21.840Z,100666.13
2023-03-05T03:44:49.472Z,100658.28
2023-03-05T03:47:16.879Z,100666.94
2023-03-05T03:49:43.645Z,100660.34
2023-03-05T03:52:10.640Z,100651.50
2023-03-05T03:54:37.444Z,100653.34
2023-03-05T03:57:05.184Z,100652.84
2023-03-05T03:59:32.074Z,100649.69
2023-03-05T04:01:58.918Z,100638.59
2023-03-05T04:04:26.770Z,100637.25
2023-03-05T04:06:53.703Z,100637.41
2023-03-05T04:09:20.525Z,100629.59
2023-03-05T04:11:47.369Z,100629.72
2023-03-05T04:14:14.214Z,100630.06
2023-03-05T04:16:41.049Z,100625.97
2023-03-05T04:19:07.855Z,100621.47
2023-03-05T04:21:34.654Z,100611.13
2023-03-05T04:24:01.378Z,100610.00
2023-03-05T04:26:28.171Z,100601.38
2023-03-05T04:28:54.904Z,100600.41
2023-03-05T04:31:21.833Z,100599.19
2023-03-05T04:33:48.579Z,100601.03
2023-03-05T04:36:15.366Z,100595.25
2023-03-05T04:38:42.282Z,100591.25
2023-03-05T04:41:09.149Z,100589.94
2023-03-05T04:43:35.869Z,100577.88
2023-03-05T04:46:02.814Z,100577.19
2023-03-05T04:48:29.783Z,100580.00
2023-03-05T04:50:58.046Z,100576.53
2023-03-05T04:53:28.056Z,100570.88
2023-03-05T04:55:55.778Z,100575.81
2023-03-05T04:58:23.313Z,100571.16
2023-03-05T05:00:50.294Z,100564.22
2023-03-05T05:03:17.220Z,100565.03
2023-03-05T05:05:44.107Z,100564.34
2023-03-05T05:08:11.322Z,100555.22
2023-03-05T05:10:41.530Z,100556.88
2023-03-05T05:13:08.336Z,100553.06
2023-03-05T05:15:35.127Z,100550.88
2023-03-05T05:18:02.055Z,100545.28
2023-03-05T05:20:29.016Z,100541.25
2023-03-05T05:22:55.819Z,100540.94
2023-03-05T05:25:22.633Z,100541.22
2023-03-05T05:27:49.898Z,100537.34
2023-03-05T05:30:17.078Z,100539.00
2023-03-05T05:32:44.100Z,100528.09
2023-03-05T05:35:11.300Z,100527.41
2023-03-05T05:37:38.189Z,100529.31
2023-03-05T05:40:08.394Z,100537.38
2023-03-05T05:42:35.779Z,100520.28
2023-03-05T05:45:03.296Z,100523.03
2023-03-05T05:47:30.225Z,100518.06
2023-03-05T05:49:57.082Z,100511.94
2023-03-05T05:52:23.827Z,100514.13
2023-03-05T05:54:50.685Z,100516.72
2023-03-05T05:57:17.588Z,100514.13
2023-03-05T05:59:44.991Z,100519.97
2023-03-05T06:02:11.874Z,100507.53
2023-03-05T06:04:40.101Z,100500.41
2023-03-05T06:07:07.109Z,100497.03
2023-03-05T06:09:35.673Z,100491.63
2023-03-05T06:12:02.574Z,100492.63
2023-03-05T06:14:29.420Z,100488.94
2023-03-05T06:16:56.304Z,100475.84
2023-03-05T06:19:23.138Z,100477.75
2023-03-05T06:21:49.966Z,100473.31
2023-03-05T06:24:16.861Z,100470.06
2023-03-05T06:26:43.799Z,100463.34
2023-03-05T06:29:10.605Z,100467.34
2023-03-05T06:31:37.536Z,100464.38
2023-03-05T06:34:04.585Z,100454.53
2023-03-05T06:36:32.050Z,100460.44
2023-03-05T06:38:58.866Z,100457.16
2023-03-05T06:41:29.038Z,100455.25
2023-03-05T06:43:56.123Z,100455.78
2023-03-05T06:46:28.127Z,100455.13
2023-03-05T06:48:57.207Z,100457.91
2023-03-05T06:51:26.161Z,100458.44
2023-03-05T06:53:53.829Z,100458.25
2023-03-05T06:56:21.909Z,100458.25
2023-03-05T06:58:51.129Z,100454.06
2023-03-05T07:01:18.629Z,100452.94
2023-03-05T07:03:49.289Z,100453.66
2023-03-05T07:06:16.502Z,100445.81
2023-03-05T07:08:44.963Z,100446.47
2023-03-05T07:11:13.728Z,100444.97
2023-03-05T07:13:40.624Z,100444.63
2023-03-05T07:16:09.509Z,100444.28
2023-03-05T07:18:36.928Z,100432.56
2023-03-05T07:21:08.287Z,100435.50
2023-03-05T07:23:36.066Z,100434.22
2023-03-05T07:26:04.403Z,100434.81
2023-03-05T07:28:31.926Z,100432.09
2023-03-05T07:31:00.459Z,100432.44
2023-03-05T07:33:27.535Z,100433.38
2023-03-05T07:35:54.902Z,100432.47
2023-03-05T07:38:21.798Z,100426.13
2023-03-05T07:40:48.792Z,100416.25
2023-03-05T07:43:15.613Z,100425.50
2023-03-05T07:45:44.897Z,100414.56
2023-03-05T07:48:17.756Z,100416.75
2023-03-05T07:50:44.813Z,100415.78
2023-03-05T07:53:11.695Z,100412.66
2023-03-05T07:55:46.340Z,100410.97
2023-03-05T07:58:14.337Z,100410.91
2023-03-05T08:00:41.563Z,100409.97
2023-03-05T08:03:08.461Z,100407.31
2023-03-05T08:05:35.625Z,100400.28
2023-03-05T08:08:02.410Z,100403.09
2023-03-05T08:10:29.212Z,100398.53
2023-03-05T08:12:56.078Z,100413.88
2023-03-05T08:15:22.875Z,100408.81
2023-03-05T08:17:49.788Z,100409.00
2023-03-05T08:20:16.677Z,100401.97
2023-03-05T08:22:43.495Z,100406.13
2023-03-05T08:25:10.422Z,100403.97
2023-03-05T08:27:45.013Z,100409.31
2023-03-05T08:30:15.715Z,100406.28
2023-03-05T08:32:43.144Z,100391.78
2023-03-05T08:35:10.619Z,100397.38
2023-03-05T08:37:37.560Z,100397.19
2023-03-05T08:40:05.260Z,100389.78
2023-03-05T08:42:32.117Z,100386.47
2023-03-05T08:44:59.121Z,100380.31
2023-03-05T08:47:27.063Z,100382.22
2023-03-05T08:49:55.823Z,100381.66
2023-03-05T08:52:23.396Z,100388.19
2023-03-05T08:54:50.648Z,100383.31
2023-03-05T08:57:17.503Z,100385.88
2023-03-05T08:59:44.347Z,100389.38
2023-03-05T09:02:12.709Z,100378.19
2023-03-05T09:04:39.769Z,100380.66
2023-03-05T09:07:06.668Z,100380.19
2023-03-05T09:09:34.235Z,100373.03
2023-03-05T09:12:02.118Z,100378.72
2023-03-05T09:14:29.568Z,100384.50
2023-03-05T09:16:56.951Z,100373.59
2023-03-05T09:19:24.274Z,100381.34
2023-03-05T09:21:51.412Z,100376.47
2023-03-05T09:24:18.284Z,100375.34
2023-03-05T09:26:45.143Z,100374.72
2023-03-05T09:29:12.584Z,100380.59
2023-03-05T09:31:39.857Z,100382.81
2023-03-05T09:34:08.306Z,100380.59
2023-03-05T09:36:35.515Z,100383.63
2023-03-05T09:39:02.322Z,100384.94
2023-03-05T09:42:04.165Z,100386.25
2023-03-05T09:44:34.945Z,100384.25
2023-03-05T09:47:40.321Z,100384.69
2023-03-05T09:50:23.830Z,100381.34
2023-03-05T09:52:55.704Z,100372.53
2023-03-05T09:55:29.548Z,100375.53
2023-03-05T09:57:59.285Z,100375.97
2023-03-05T10:00:45.378Z,100377.16
2023-03-05T10:03:18.626Z,100372.28
2023-03-05T10:05:58.625Z,100380.78
2023-03-05T10:08:31.716Z,100376.72
2023-03-05T10:11:00.005Z,100372.13
2023-03-05T10:13:33.519Z,100371.06
2023-03-05T10:16:23.652Z,100369.44
2023-03-05T10:19:02.194Z,100353.75
2023-03-05T10:21:32.693Z,100355.41
2023-03-05T10:24:26.199Z,100351.28
2023-03-05T10:27:15.534Z,100347.25
2023-03-05T10:29:45.288Z,100355.72
2023-03-05T10:32:35.256Z,100352.78
2023-03-05T10:35:02.179Z,100348.91
2023-03-05T10:38:14.267Z,100355.84
2023-03-05T10:40:52.214Z,100356.06
2023-03-05T10:43:51.280Z,100349.47
2023-03-05T10:46:21.624Z,100337.22
2023-03-05T10:48:56.173Z,100338.25
2023-03-05T10:51:36.813Z,100343.13
2023-03-05T10:54:18.187Z,100337.63
2023-03-05T10:56:45.125Z,100338.91
2023-03-05T10:59:11.927Z,100340.38
2023-03-05T11:01:38.806Z,100336.44
2023-03-05T11:04:07.447Z,100337.59
2023-03-05T11:06:36.272Z,100339.00
2023-03-05T11:09:24.763Z,100331.31
2023-03-05T11:12:03.927Z,100328.19
2023-03-05T11:14:33.467Z,100320.56
2023-03-05T11:17:28.524Z,100323.09
2023-03-05T11:19:56.708Z,100314.59
2023-03-05T11:22:25.729Z,100315.13
2023-03-05T11:25:10.272Z,100319.53
2023-03-05T11:27:39.239Z,100325.41
2023-03-05T11:30:21.193Z,100326.09
2023-03-05T11:32:48.184Z,100329.94
2023-03-05T11:35:32.156Z,100327.09
2023-03-05T11:38:03.898Z,100319.84
2023-03-05T11:40:35.822Z,100321.69
2023-03-05T11:43:04.859Z,100322.75
2023-03-05T11:45:34.153Z,100320.00
2023-03-05T11:48:13.303Z,100317.41
2023-03-05T11:50:42.217Z,100319.00
2023-03-05T11:53:13.441Z,100322.94
2023-03-05T11:55:47.122Z,100306.13
2023-03-05T11:58:29.058Z,100305.09
2023-03-05T12:00:56.693Z,100309.22
2023-03-05T12:03:31.063Z,100297.09
2023-03-05T12:06:02.394Z,100299.56
2023-03-05T12:08:37.910Z,100300.53
2023-03-05T12:11:09.683Z,100295.25
2023-03-05T12:13:49.429Z,100294.19
2023-03-05T12:16:28.428Z,100293.19
2023-03-05T12:19:01.461Z,100290.28
2023-03-05T12:21:42.221Z,100283.94
2023-03-05T12:24:27.768Z,100293.34
2023-03-05T12:27:03.991Z,100294.41
2023-03-05T12:29:40.186Z,100288.38
2023-03-05T12:32:22.220Z,100281.00
2023-03-05T12:34:59.692Z,100280.22
2023-03-05T12:37:26.518Z,100283.00
2023-03-05T12:40:22.100Z,100276.00
2023-03-05T12:42:54.026Z,100270.53
2023-03-05T12:45:26.856Z,100269.72
2023-03-05T12:47:56.451Z,100267.19
2023-03-05T12:50:29.682Z,100268.44
2023-03-05T12:53:15.234Z,100262.72
2023-03-05T12:55:45.976Z,100264.34
2023-03-05T12:58:31.637Z,100255.91
2023-03-05T13:01:07.902Z,100257.59
2023-03-05T13:03:39.588Z,100254.94
2023-03-05T13:06:08.294Z,100248.34
2023-03-05T13:08:37.405Z,100249.94
2023-03-05T13:11:16.915Z,100246.84
2023-03-05T13:13:45.146Z,100243.84
2023-03-05T13:16:38.649Z,100244.63
2023-03-05T13:19:15.810Z,100245.69
2023-03-05T13:21:42.698Z,100236.84
2023-03-05T13:24:19.244Z,100241.75
2023-03-05T13:26:46.279Z,100241.75
2023-03-05T13:29:21.255Z,100239.25
2023-03-05T13:31:52.090Z,100232.72
2023-03-05T13:34:22.714Z,100234.13
2023-03-05T13:36:55.542Z,100222.59
2023-03-05T13:39:27.362Z,100218.25
2023-03-05T13:42:04.352Z,100223.50
2023-03-05T13:44:33.547Z,100222.44
2023-03-05T13:47:18.935Z,100208.84
2023-03-05T13:49:47.388Z,100207.34
2023-03-05T13:52:25.214Z,100208.66
2023-03-05T13:54:52.114Z,100201.38
2023-03-05T13:57:34.350Z,100200.56
2023-03-05T14:00:01.319Z,100200.84
2023-03-05T14:02:30.703Z,100200.44
2023-03-05T14:04:59.550Z,100200.66
2023-03-05T14:07:39.418Z,100191.59
2023-03-05T14:10:31.826Z,100193.25
2023-03-05T14:12:59.867Z,100179.25
2023-03-05T14:15:31.189Z,100180.63
2023-03-05T14:18:13.342Z,100188.28
2023-03-05T14:20:42.398Z,100188.44
2023-03-05T14:23:37.968Z,100179.03
2023-03-05T14:26:16.644Z,100174.06
2023-03-05T14:28:43.511Z,100168.53
2023-03-05T14:31:16.531Z,100165.47
2023-03-05T14:33:43.673Z,100159.72
2023-03-05T14:36:11.359Z,100153.97
2023-03-05T14:38:42.489Z,100149.06
2023-03-05T14:41:34.398Z,100149.91
2023-03-05T14:44:01.871Z,100143.94
2023-03-05T14:46:28.859Z,100142.69
2023-03-05T14:48:55.785Z,100134.88
2023-03-05T14:51:22.659Z,100134.91
2023-03-05T14:53:51.166Z,100140.03
2023-03-05T14:56:26.562Z,100132.63
2023-03-05T14:58:53.977Z,100136.53
2023-03-05T15:01:20.949Z,100128.91
2023-03-05T15:03:47.801Z,100129.31
2023-03-05T15:06:26.037Z,100130.13
2023-03-05T15:08:53.456Z,100119.03
2023-03-05T15:11:22.668Z,100117.41
2023-03-05T15:13:52.824Z,100123.34
2023-03-05T15:16:20.170Z,100107.31
2023-03-05T15:18:46.983Z,100102.63
2023-03-05T15:21:13.826Z,100097.69
2023-03-05T15:23:41.216Z,100098.47
2023-03-05T15:26:09.556Z,100091.31
2023-03-05T15:28:37.860Z,100082.81
2023-03-05T15:31:05.957Z,100086.50
2023-03-05T15:33:33.341Z,100081.03
2023-03-05T15:36:00.241Z,100079.94
2023-03-05T15:38:27.072Z,100078.38
2023-03-05T15:40:53.932Z,100080.03
2023-03-05T15:43:20.788Z,100077.16
2023-03-05T15:45:48.201Z,100065.84
2023-03-05T15:48:15.086Z,100069.97
2023-03-05T15:50:43.506Z,100055.50
2023-03-05T15:53:12.193Z,100055.34
2023-03-05T15:55:40.145Z,100045.34
2023-03-05T15:58:07.364Z,100048.59
2023-03-05T16:00:36.549Z,100042.25
2023-03-05T16:03:03.742Z,100038.13
2023-03-05T16:05:30.672Z,100036.06
2023-03-05T16:07:57.721Z,100034.00
2023-03-05T16:10:26.332Z,100033.41
2023-03-05T16:12:56.337Z,100025.00
2023-03-05T16:15:23.469Z,100025.19
2023-03-05T16:17:54.200Z,100024.16
2023-03-05T16:20:21.561Z,100019.81
2023-03-05T16:22:49.461Z,100020.06
2023-03-05T16:25:16.773Z,100011.47
2023-03-05T16:27:43.515Z,100005.31
2023-03-05T16:30:11.098Z,100014.09
2023-03-05T16:32:38.851Z,100007.78
2023-03-05T16:35:06.180Z,99995.84
2023-03-05T16:37:33.003Z,100002.22
2023-03-05T16:39:59.958Z,99996.88
2023-03-05T16:42:26.966Z,100000.78
2023-03-05T16:44:54.297Z,99994.63
2023-03-05T16:47:21.318Z,99993.19
2023-03-05T16:49:48.278Z,99983.53
2023-03-05T16:52:19.584Z,99992.78
2023-03-05T16:54:48.465Z,99980.03
2023-03-05T16:57:15.934Z,99985.78
2023-03-05T16:59:43.838Z,99985.19
2023-03-05T17:02:13.280Z,99982.06
2023-03-05T17:04:40.186Z,99972.41
2023-03-05T17:07:22.288Z,99976.50
2023-03-05T17:09:50.496Z,99967.94
2023-03-05T17:12:17.301Z,99968.09
2023-03-05T17:14:44.226Z,99968.72
2023-03-05T17:17:11.539Z,99967.53
2023-03-05T17:19:38.693Z,99966.72
2023-03-05T17:22:05.595Z,99959.31
2023-03-05T17:24:33.408Z,99953.59
2023-03-05T17:27:00.548Z,99942.69
2023-03-05T17:29:27.428Z,99948.19
2023-03-05T17:31:54.254Z,99948.00
2023-03-05T17:34:33.290Z,99947.41
2023-03-05T17:37:03.188Z,99943.09
2023-03-05T17:39:30.438Z,99942.44
2023-03-05T17:41:57.632Z,99939.56
2023-03-05T17:44:25.101Z,99939.34
2023-03-05T17:46:51.908Z,99936.72
2023-03-05T17:49:20.062Z,99928.28
2023-03-05T17:51:47.130Z,99927.47
2023-03-05T17:54:14.037Z,99932.81
2023-03-05T17:56:41.074Z,99924.00
2023-03-05T17:59:07.842Z,99928.47
2023-03-05T18:01:35.042Z,99922.94
2023-03-05T18:04:03.459Z,99922.31
2023-03-05T18:06:30.272Z,99921.50
2023-03-05T18:08:57.171Z,99922.09
2023-03-05T18:11:24.278Z,99921.91
2023-03-05T18:13:51.200Z,99913.09
2023-03-05T18:16:18.397Z,99917.81
2023-03-05T18:18:45.764Z,99914.56
2023-03-05T18:21:12.796Z,99909.84
2023-03-05T18:23:39.758Z,99915.56
2023-03-05T18:26:06.645Z,99912.69
2023-03-05T18:28:33.354Z,99913.72
2023-03-05T18:31:01.326Z,99911.88
2023-03-05T18:33:28.262Z,99901.19
2023-03-05T18:35:55.094Z,99903.03
2023-03-05T18:38:23.386Z,99901.56
2023-03-05T18:40:51.520Z,99900.31
2023-03-05T18:43:20.697Z,99901.34
2023-03-05T18:45:51.982Z,99896.78
2023-03-05T18:48:19.155Z,99886.34
2023-03-05T18:50:46.964Z,99882.63
2023-03-05T18:53:14.394Z,99877.06
2023-03-05T18:55:45.024Z,99874.59
2023-03-05T18:58:15.839Z,99869.25
2023-03-05T19:00:44.905Z,99861.84
2023-03-05T19:03:11.925Z,99860.78
2023-03-05T19:05:39.870Z,99851.34
2023-03-05T19:08:07.907Z,99846.66
2023-03-05T19:10:34.839Z,99853.63
2023-03-05T19:13:23.799Z,99843.97
2023-03-05T19:15:51.257Z,99838.50
2023-03-05T19:18:20.662Z,99826.06
2023-03-05T19:20:56.299Z,99828.91
2023-03-05T19:23:24.186Z,99823.09
2023-03-05T19:25:51.001Z,99815.91
2023-03-05T19:28:17.915Z,99820.91
2023-03-05T19:30:50.419Z,99810.97
2023-03-05T19:33:21.280Z,99812.91
2023-03-05T19:35:50.110Z,99817.19
2023-03-05T19:38:17.350Z,99802.66
2023-03-05T19:40:44.189Z,99793.31
2023-03-05T19:43:10.922Z,99797.25
2023-03-05T19:45:38.345Z,99793.13
2023-03-05T19:48:05.587Z,99794.78
2023-03-05T19:50:34.407Z,99791.31
2023-03-05T19:53:01.658Z,99792.25
2023-03-05T19:55:28.672Z,99784.34
2023-03-05T19:57:55.528Z,99785.19
2023-03-05T20:00:22.640Z,99776.34
2023-03-05T20:02:49.412Z,99777.91
2023-03-05T20:05:16.240Z,99775.56
2023-03-05T20:07:43.047Z,99775.84
2023-03-05T20:10:10.483Z,99768.22
2023-03-05T20:12:39.292Z,99755.31
2023-03-05T20:15:06.678Z,99745.97
2023-03-05T20:17:33.608Z,99745.69
2023-03-05T20:20:00.436Z,99745.03
2023-03-05T20:22:27.259Z,99752.66
2023-03-05T20:24:54.037Z,99746.41
2023-03-05T20:27:20.839Z,99741.28
2023-03-05T20:29:48.075Z,99735.63
2023-03-05T20:32:15.363Z,99736.84
2023-03-05T20:34:42.232Z,99736.59
2023-03-05T20:37:09.059Z,99729.47
2023-03-05T20:39:35.944Z,99717.81
2023-03-05T20:42:02.782Z,99717.00
2023-03-05T20:44:29.601Z,99712.28
2023-03-05T20:47:09.973Z,99704.94
2023-03-05T20:49:36.843Z,99706.34
2023-03-05T20:52:03.703Z,99703.28
2023-03-05T20:54:30.701Z,99698.56
2023-03-05T20:56:57.428Z,99692.84
2023-03-05T20:59:24.887Z,99687.09
2023-03-05T21:01:51.714Z,99689.56
2023-03-05T21:04:18.577Z,99682.41
2023-03-05T21:06:45.389Z,99675.88
2023-03-05T21:09:12.195Z,99673.81
2023-03-05T21:11:39.045Z,99661.34
2023-03-05T21:14:05.872Z,99663.59
2023-03-05T21:16:32.822Z,99663.13
2023-03-05T21:18:59.767Z,99659.50
2023-03-05T21:21:26.567Z,99656.63
2023-03-05T21:23:53.671Z,99646.44
2023-03-05T21:26:20.806Z,99648.28
2023-03-05T21:28:48.067Z,99638.44
2023-03-05T21:31:20.691Z,99637.00
2023-03-05T21:33:47.649Z,99632.09
2023-03-05T21:36:18.801Z,99622.91
2023-03-05T21:38:49.615Z,99611.63
2023-03-05T21:41:18.307Z,99611.03
2023-03-05T21:43:45.197Z,99609.38
2023-03-05T21:46:12.403Z,99598.72
2023-03-05T21:48:39.323Z,99596.72
2023-03-05T21:51:08.717Z,99599.13
2023-03-05T21:53:35.996Z,99592.38
2023-03-05T21:56:22.517Z,99587.28
2023-03-05T21:58:50.137Z,99581.75
2023-03-05T22:01:19.370Z,99572.94
2023-03-05T22:03:46.807Z,99571.47
2023-03-05T22:06:15.328Z,99568.63
2023-03-05T22:08:42.165Z,99552.44
2023-03-05T22:11:10.797Z,99555.47
2023-03-05T22:13:38.087Z,99548.94
2023-03-05T22:16:06.135Z,99550.38
2023-03-05T22:18:33.855Z,99534.19
2023-03-05T22:21:01.250Z,99536.84
2023-03-05T22:23:30.770Z,99529.47
2023-03-05T22:26:05.943Z,99521.06
2023-03-05T22:28:34.056Z,99519.66
2023-03-05T22:31:01.183Z,99528.47
2023-03-05T22:33:29.041Z,99510.47
2023-03-05T22:35:55.976Z,99507.16
2023-03-05T22:38:24.178Z,99505.53
2023-03-05T22:40:52.579Z,99501.28
2023-03-05T22:43:19.677Z,99496.94
2023-03-05T22:45:47.061Z,99496.34
2023-03-05T22:48:13.985Z,99487.13
2023-03-05T22:50:42.074Z,99477.97
2023-03-05T22:53:09.141Z,99480.78
2023-03-05T22:55:40.213Z,99471.78
2023-03-05T22:58:07.325Z,99473.19
2023-03-05T23:00:34.240Z,99466.19
2023-03-05T23:03:01.423Z,99461.53
2023-03-05T23:05:28.343Z,99453.97
2023-03-05T23:07:55.247Z,99451.50
2023-03-05T23:10:26.952Z,99445.78
2023-03-05T23:12:55.296Z,99430.88
2023-03-05T23:15:33.945Z,99428.03
2023-03-05T23:18:01.692Z,99419.63
2023-03-05T23:20:31.301Z,99409.22
2023-03-05T23:22:58.433Z,99404.16
2023-03-05T23:25:27.958Z,99409.44
2023-03-05T23:27:55.664Z,99407.16
2023-03-05T23:30:23.771Z,99391.25
2023-03-05T23:32:53.795Z,99393.84
2023-03-05T23:35:48.290Z,99383.06
2023-03-05T23:38:15.443Z,99373.69
2023-03-05T23:40:45.142Z,99369.41
2023-03-05T23:43:12.525Z,99369.56
2023-03-05T23:45:41.720Z,99364.03
2023-03-05T23:48:08.814Z,99370.38
2023-03-05T23:50:37.495Z,99359.16
2023-03-05T23:53:05.010Z,99350.81
2023-03-05T23:55:50.148Z,99350.81
2023-03-05T23:58:19.212Z,99335.69
